sensor_id;sensor_type;location;lat;lon;timestamp;P1;durP1;ratioP1;P2;durP2;ratioP2
51382;SDS011;37475;43.358;1.248;2022-12-07T00:01:36;44.30;;;28.20;;
51382;SDS011;37475;43.358;1.248;2022-12-07T00:04:04;47.92;;;27.33;;
51382;SDS011;37475;43.358;1.248;2022-12-07T00:06:33;47.63;;;29.08;;
51382;SDS011;37475;43.358;1.248;2022-12-07T00:09:02;46.63;;;28.60;;
51382;SDS011;37475;43.358;1.248;2022-12-07T00:11:32;48.10;;;28.65;;
51382;SDS011;37475;43.358;1.248;2022-12-07T00:14:00;57.92;;;33.17;;
51382;SDS011;37475;43.358;1.248;2022-12-07T00:16:29;64.32;;;36.10;;
51382;SDS011;37475;43.358;1.248;2022-12-07T00:18:57;58.95;;;33.88;;
51382;SDS011;37475;43.358;1.248;2022-12-07T00:21:25;53.28;;;33.30;;
51382;SDS011;37475;43.358;1.248;2022-12-07T00:23:54;50.80;;;30.85;;
51382;SDS011;37475;43.358;1.248;2022-12-07T00:26:22;60.67;;;37.75;;
51382;SDS011;37475;43.358;1.248;2022-12-07T00:29:07;44.83;;;27.65;;
51382;SDS011;37475;43.358;1.248;2022-12-07T00:31:40;63.58;;;36.10;;
51382;SDS011;37475;43.358;1.248;2022-12-07T00:34:06;54.50;;;30.33;;
51382;SDS011;37475;43.358;1.248;2022-12-07T00:36:40;55.38;;;32.25;;
51382;SDS011;37475;43.358;1.248;2022-12-07T00:39:06;54.38;;;31.67;;
51382;SDS011;37475;43.358;1.248;2022-12-07T00:41:31;54.97;;;32.20;;
51382;SDS011;37475;43.358;1.248;2022-12-07T00:43:57;53.53;;;30.95;;
51382;SDS011;37475;43.358;1.248;2022-12-07T00:46:24;55.38;;;30.52;;
51382;SDS011;37475;43.358;1.248;2022-12-07T00:48:50;55.38;;;32.67;;
51382;SDS011;37475;43.358;1.248;2022-12-07T00:51:18;55.63;;;30.73;;
51382;SDS011;37475;43.358;1.248;2022-12-07T00:53:46;51.67;;;31.02;;
51382;SDS011;37475;43.358;1.248;2022-12-07T00:56:13;57.08;;;32.42;;
51382;SDS011;37475;43.358;1.248;2022-12-07T00:58:42;55.47;;;30.92;;
51382;SDS011;37475;43.358;1.248;2022-12-07T01:01:09;51.75;;;31.58;;
51382;SDS011;37475;43.358;1.248;2022-12-07T01:03:36;52.38;;;30.60;;
51382;SDS011;37475;43.358;1.248;2022-12-07T01:06:03;54.47;;;31.67;;
51382;SDS011;37475;43.358;1.248;2022-12-07T01:08:29;49.53;;;30.98;;
51382;SDS011;37475;43.358;1.248;2022-12-07T01:11:06;52.70;;;31.45;;
51382;SDS011;37475;43.358;1.248;2022-12-07T01:13:34;55.53;;;30.38;;
51382;SDS011;37475;43.358;1.248;2022-12-07T01:16:01;50.97;;;30.63;;
51382;SDS011;37475;43.358;1.248;2022-12-07T01:18:30;58.05;;;31.17;;
51382;SDS011;37475;43.358;1.248;2022-12-07T01:21:00;55.53;;;32.58;;
51382;SDS011;37475;43.358;1.248;2022-12-07T01:23:27;55.75;;;33.20;;
51382;SDS011;37475;43.358;1.248;2022-12-07T01:25:54;57.55;;;34.78;;
51382;SDS011;37475;43.358;1.248;2022-12-07T01:28:25;52.92;;;33.10;;
51382;SDS011;37475;43.358;1.248;2022-12-07T01:30:56;55.05;;;32.17;;
51382;SDS011;37475;43.358;1.248;2022-12-07T01:33:35;56.55;;;32.20;;
51382;SDS011;37475;43.358;1.248;2022-12-07T01:36:05;53.70;;;31.98;;
51382;SDS011;37475;43.358;1.248;2022-12-07T01:38:40;58.13;;;32.97;;
51382;SDS011;37475;43.358;1.248;2022-12-07T01:41:06;53.03;;;33.63;;
51382;SDS011;37475;43.358;1.248;2022-12-07T01:43:33;53.88;;;33.50;;
51382;SDS011;37475;43.358;1.248;2022-12-07T01:46:00;56.00;;;33.95;;
51382;SDS011;37475;43.358;1.248;2022-12-07T01:48:28;61.63;;;34.38;;
51382;SDS011;37475;43.358;1.248;2022-12-07T01:51:10;64.72;;;34.85;;
51382;SDS011;37475;43.358;1.248;2022-12-07T01:53:40;60.88;;;34.10;;
51382;SDS011;37475;43.358;1.248;2022-12-07T01:56:09;63.38;;;34.42;;
51382;SDS011;37475;43.358;1.248;2022-12-07T01:58:40;58.63;;;32.35;;
51382;SDS011;37475;43.358;1.248;2022-12-07T02:01:06;60.13;;;33.20;;
51382;SDS011;37475;43.358;1.248;2022-12-07T02:03:41;63.90;;;34.15;;
51382;SDS011;37475;43.358;1.248;2022-12-07T02:06:10;56.17;;;33.22;;
51382;SDS011;37475;43.358;1.248;2022-12-07T02:08:42;65.67;;;36.07;;
51382;SDS011;37475;43.358;1.248;2022-12-07T02:11:08;61.03;;;35.03;;
51382;SDS011;37475;43.358;1.248;2022-12-07T02:13:35;63.67;;;34.92;;
51382;SDS011;37475;43.358;1.248;2022-12-07T02:27:39;60.63;;;35.63;;
51382;SDS011;37475;43.358;1.248;2022-12-07T02:30:13;59.38;;;35.30;;
51382;SDS011;37475;43.358;1.248;2022-12-07T02:41:09;59.72;;;34.88;;
51382;SDS011;37475;43.358;1.248;2022-12-07T02:43:43;59.65;;;35.60;;
51382;SDS011;37475;43.358;1.248;2022-12-07T02:46:17;60.00;;;36.35;;
51382;SDS011;37475;43.358;1.248;2022-12-07T02:48:48;59.05;;;35.85;;
51382;SDS011;37475;43.358;1.248;2022-12-07T02:51:19;59.78;;;34.42;;
51382;SDS011;37475;43.358;1.248;2022-12-07T02:53:46;74.22;;;39.53;;
51382;SDS011;37475;43.358;1.248;2022-12-07T03:02:38;68.65;;;38.08;;
51382;SDS011;37475;43.358;1.248;2022-12-07T03:08:39;58.40;;;33.10;;
51382;SDS011;37475;43.358;1.248;2022-12-07T03:11:29;54.42;;;31.98;;
51382;SDS011;37475;43.358;1.248;2022-12-07T03:14:29;49.05;;;31.00;;
51382;SDS011;37475;43.358;1.248;2022-12-07T03:19:41;56.53;;;33.67;;
51382;SDS011;37475;43.358;1.248;2022-12-07T03:22:10;54.20;;;32.42;;
51382;SDS011;37475;43.358;1.248;2022-12-07T03:24:42;53.45;;;31.60;;
51382;SDS011;37475;43.358;1.248;2022-12-07T03:27:39;49.63;;;32.00;;
51382;SDS011;37475;43.358;1.248;2022-12-07T03:30:32;52.28;;;32.55;;
51382;SDS011;37475;43.358;1.248;2022-12-07T03:33:17;48.55;;;30.70;;
51382;SDS011;37475;43.358;1.248;2022-12-07T03:36:01;49.90;;;30.85;;
51382;SDS011;37475;43.358;1.248;2022-12-07T03:38:48;52.47;;;32.42;;
51382;SDS011;37475;43.358;1.248;2022-12-07T03:41:26;53.67;;;32.17;;
51382;SDS011;37475;43.358;1.248;2022-12-07T03:43:56;49.47;;;31.23;;
51382;SDS011;37475;43.358;1.248;2022-12-07T03:49:29;50.35;;;30.92;;
51382;SDS011;37475;43.358;1.248;2022-12-07T03:57:34;46.00;;;28.00;;
51382;SDS011;37475;43.358;1.248;2022-12-07T04:00:03;44.33;;;29.25;;
51382;SDS011;37475;43.358;1.248;2022-12-07T04:02:31;45.13;;;27.85;;
51382;SDS011;37475;43.358;1.248;2022-12-07T04:04:58;49.00;;;29.85;;
51382;SDS011;37475;43.358;1.248;2022-12-07T04:07:24;45.00;;;28.88;;
51382;SDS011;37475;43.358;1.248;2022-12-07T04:09:50;48.47;;;28.17;;
51382;SDS011;37475;43.358;1.248;2022-12-07T04:12:16;47.75;;;29.65;;
51382;SDS011;37475;43.358;1.248;2022-12-07T04:14:42;47.53;;;28.30;;
51382;SDS011;37475;43.358;1.248;2022-12-07T04:17:08;48.92;;;29.17;;
51382;SDS011;37475;43.358;1.248;2022-12-07T04:19:34;46.25;;;27.58;;
51382;SDS011;37475;43.358;1.248;2022-12-07T04:22:00;45.90;;;28.60;;
51382;SDS011;37475;43.358;1.248;2022-12-07T04:24:28;50.30;;;28.98;;
51382;SDS011;37475;43.358;1.248;2022-12-07T04:26:54;50.80;;;30.02;;
51382;SDS011;37475;43.358;1.248;2022-12-07T04:29:20;49.83;;;30.40;;
51382;SDS011;37475;43.358;1.248;2022-12-07T04:31:47;47.17;;;29.02;;
51382;SDS011;37475;43.358;1.248;2022-12-07T04:34:14;46.20;;;28.48;;
51382;SDS011;37475;43.358;1.248;2022-12-07T04:36:40;45.97;;;28.17;;
51382;SDS011;37475;43.358;1.248;2022-12-07T04:39:07;48.45;;;28.20;;
51382;SDS011;37475;43.358;1.248;2022-12-07T04:41:42;48.72;;;29.77;;
51382;SDS011;37475;43.358;1.248;2022-12-07T04:44:08;46.55;;;28.48;;
51382;SDS011;37475;43.358;1.248;2022-12-07T04:46:34;50.05;;;30.60;;
51382;SDS011;37475;43.358;1.248;2022-12-07T04:49:00;51.80;;;30.50;;
51382;SDS011;37475;43.358;1.248;2022-12-07T04:51:27;52.65;;;31.77;;
51382;SDS011;37475;43.358;1.248;2022-12-07T04:53:54;55.10;;;31.42;;
51382;SDS011;37475;43.358;1.248;2022-12-07T04:56:21;48.22;;;30.38;;
51382;SDS011;37475;43.358;1.248;2022-12-07T04:58:47;53.75;;;32.70;;
51382;SDS011;37475;43.358;1.248;2022-12-07T05:01:15;57.75;;;33.72;;
51382;SDS011;37475;43.358;1.248;2022-12-07T05:03:42;53.35;;;31.70;;
51382;SDS011;37475;43.358;1.248;2022-12-07T05:06:08;55.92;;;33.00;;
51382;SDS011;37475;43.358;1.248;2022-12-07T05:08:35;55.70;;;33.50;;
51382;SDS011;37475;43.358;1.248;2022-12-07T05:11:02;55.90;;;34.00;;
51382;SDS011;37475;43.358;1.248;2022-12-07T05:13:30;53.88;;;33.30;;
51382;SDS011;37475;43.358;1.248;2022-12-07T05:15:56;53.97;;;32.00;;
51382;SDS011;37475;43.358;1.248;2022-12-07T05:18:22;50.50;;;31.05;;
51382;SDS011;37475;43.358;1.248;2022-12-07T05:20:48;52.25;;;32.22;;
51382;SDS011;37475;43.358;1.248;2022-12-07T05:23:14;53.60;;;32.33;;
51382;SDS011;37475;43.358;1.248;2022-12-07T05:25:40;51.17;;;31.88;;
51382;SDS011;37475;43.358;1.248;2022-12-07T05:28:06;57.08;;;31.42;;
51382;SDS011;37475;43.358;1.248;2022-12-07T05:30:32;63.85;;;37.67;;
51382;SDS011;37475;43.358;1.248;2022-12-07T05:32:57;69.63;;;41.80;;
51382;SDS011;37475;43.358;1.248;2022-12-07T05:35:23;72.82;;;42.65;;
51382;SDS011;37475;43.358;1.248;2022-12-07T05:37:49;55.42;;;33.63;;
51382;SDS011;37475;43.358;1.248;2022-12-07T05:40:15;56.53;;;33.33;;
51382;SDS011;37475;43.358;1.248;2022-12-07T05:42:43;59.17;;;33.78;;
51382;SDS011;37475;43.358;1.248;2022-12-07T05:45:10;60.45;;;34.75;;
51382;SDS011;37475;43.358;1.248;2022-12-07T05:47:36;52.83;;;31.05;;
51382;SDS011;37475;43.358;1.248;2022-12-07T05:50:03;56.55;;;34.55;;
51382;SDS011;37475;43.358;1.248;2022-12-07T05:52:30;52.13;;;31.20;;
51382;SDS011;37475;43.358;1.248;2022-12-07T05:54:57;55.13;;;33.50;;
51382;SDS011;37475;43.358;1.248;2022-12-07T05:57:23;56.40;;;33.63;;
51382;SDS011;37475;43.358;1.248;2022-12-07T05:59:48;55.13;;;34.85;;
51382;SDS011;37475;43.358;1.248;2022-12-07T06:02:15;56.50;;;32.50;;
51382;SDS011;37475;43.358;1.248;2022-12-07T06:04:43;53.80;;;33.47;;
51382;SDS011;37475;43.358;1.248;2022-12-07T06:07:12;59.97;;;34.47;;
51382;SDS011;37475;43.358;1.248;2022-12-07T06:09:40;59.67;;;34.60;;
51382;SDS011;37475;43.358;1.248;2022-12-07T06:12:06;57.45;;;33.25;;
51382;SDS011;37475;43.358;1.248;2022-12-07T06:14:54;53.30;;;32.00;;
51382;SDS011;37475;43.358;1.248;2022-12-07T06:17:20;54.38;;;31.48;;
51382;SDS011;37475;43.358;1.248;2022-12-07T06:19:45;59.00;;;34.10;;
51382;SDS011;37475;43.358;1.248;2022-12-07T06:22:12;65.72;;;35.92;;
51382;SDS011;37475;43.358;1.248;2022-12-07T06:24:38;73.32;;;39.10;;
51382;SDS011;37475;43.358;1.248;2022-12-07T06:27:04;66.78;;;38.83;;
51382;SDS011;37475;43.358;1.248;2022-12-07T06:29:31;64.05;;;37.97;;
51382;SDS011;37475;43.358;1.248;2022-12-07T06:31:57;69.07;;;39.05;;
51382;SDS011;37475;43.358;1.248;2022-12-07T06:34:23;75.75;;;41.80;;
51382;SDS011;37475;43.358;1.248;2022-12-07T06:36:51;65.88;;;37.17;;
51382;SDS011;37475;43.358;1.248;2022-12-07T06:39:19;59.70;;;35.95;;
51382;SDS011;37475;43.358;1.248;2022-12-07T06:41:47;67.03;;;36.97;;
51382;SDS011;37475;43.358;1.248;2022-12-07T06:44:13;61.85;;;34.15;;
51382;SDS011;37475;43.358;1.248;2022-12-07T06:46:39;59.00;;;34.60;;
51382;SDS011;37475;43.358;1.248;2022-12-07T06:49:05;64.20;;;36.45;;
51382;SDS011;37475;43.358;1.248;2022-12-07T06:51:32;58.58;;;34.38;;
51382;SDS011;37475;43.358;1.248;2022-12-07T06:54:00;56.42;;;32.80;;
51382;SDS011;37475;43.358;1.248;2022-12-07T06:56:26;59.72;;;35.97;;
51382;SDS011;37475;43.358;1.248;2022-12-07T06:58:51;57.67;;;33.85;;
51382;SDS011;37475;43.358;1.248;2022-12-07T07:01:17;60.20;;;33.95;;
51382;SDS011;37475;43.358;1.248;2022-12-07T07:03:44;63.97;;;36.15;;
51382;SDS011;37475;43.358;1.248;2022-12-07T07:06:11;55.35;;;33.08;;
51382;SDS011;37475;43.358;1.248;2022-12-07T07:08:38;61.20;;;35.35;;
51382;SDS011;37475;43.358;1.248;2022-12-07T07:11:05;61.97;;;36.63;;
51382;SDS011;37475;43.358;1.248;2022-12-07T07:13:32;64.15;;;35.38;;
51382;SDS011;37475;43.358;1.248;2022-12-07T07:15:58;63.75;;;35.00;;
51382;SDS011;37475;43.358;1.248;2022-12-07T07:18:24;65.50;;;36.28;;
51382;SDS011;37475;43.358;1.248;2022-12-07T07:20:51;66.65;;;36.70;;
51382;SDS011;37475;43.358;1.248;2022-12-07T07:23:17;62.20;;;36.00;;
51382;SDS011;37475;43.358;1.248;2022-12-07T07:25:44;66.15;;;38.72;;
51382;SDS011;37475;43.358;1.248;2022-12-07T07:28:11;75.70;;;40.55;;
51382;SDS011;37475;43.358;1.248;2022-12-07T07:30:36;64.35;;;35.97;;
51382;SDS011;37475;43.358;1.248;2022-12-07T07:33:03;66.93;;;35.65;;
51382;SDS011;37475;43.358;1.248;2022-12-07T07:35:30;68.60;;;37.13;;
51382;SDS011;37475;43.358;1.248;2022-12-07T07:37:59;78.82;;;41.70;;
51382;SDS011;37475;43.358;1.248;2022-12-07T07:40:25;71.07;;;40.78;;
51382;SDS011;37475;43.358;1.248;2022-12-07T07:42:52;77.88;;;42.42;;
51382;SDS011;37475;43.358;1.248;2022-12-07T07:45:20;81.10;;;44.60;;
51382;SDS011;37475;43.358;1.248;2022-12-07T07:47:47;73.55;;;41.28;;
51382;SDS011;37475;43.358;1.248;2022-12-07T07:50:14;72.22;;;38.97;;
51382;SDS011;37475;43.358;1.248;2022-12-07T07:52:41;72.95;;;39.58;;
51382;SDS011;37475;43.358;1.248;2022-12-07T07:55:07;71.90;;;39.25;;
51382;SDS011;37475;43.358;1.248;2022-12-07T07:57:34;72.50;;;39.13;;
51382;SDS011;37475;43.358;1.248;2022-12-07T08:00:01;67.97;;;38.88;;
51382;SDS011;37475;43.358;1.248;2022-12-07T08:02:37;67.57;;;38.83;;
51382;SDS011;37475;43.358;1.248;2022-12-07T08:05:04;74.72;;;42.55;;
51382;SDS011;37475;43.358;1.248;2022-12-07T08:07:30;84.35;;;45.53;;
51382;SDS011;37475;43.358;1.248;2022-12-07T08:09:56;70.25;;;40.65;;
51382;SDS011;37475;43.358;1.248;2022-12-07T08:12:22;74.00;;;41.60;;
51382;SDS011;37475;43.358;1.248;2022-12-07T08:14:47;62.05;;;34.80;;
51382;SDS011;37475;43.358;1.248;2022-12-07T08:17:13;61.80;;;34.90;;
51382;SDS011;37475;43.358;1.248;2022-12-07T08:19:39;66.68;;;39.03;;
51382;SDS011;37475;43.358;1.248;2022-12-07T08:22:05;72.15;;;43.50;;
51382;SDS011;37475;43.358;1.248;2022-12-07T08:24:35;59.83;;;36.63;;
51382;SDS011;37475;43.358;1.248;2022-12-07T08:27:01;52.83;;;31.83;;
51382;SDS011;37475;43.358;1.248;2022-12-07T08:29:28;51.40;;;31.60;;
51382;SDS011;37475;43.358;1.248;2022-12-07T08:31:54;56.50;;;32.85;;
51382;SDS011;37475;43.358;1.248;2022-12-07T08:34:20;46.85;;;29.38;;
51382;SDS011;37475;43.358;1.248;2022-12-07T08:36:45;48.03;;;28.95;;
51382;SDS011;37475;43.358;1.248;2022-12-07T08:39:11;46.35;;;27.98;;
51382;SDS011;37475;43.358;1.248;2022-12-07T08:41:37;58.22;;;34.55;;
51382;SDS011;37475;43.358;1.248;2022-12-07T08:44:03;71.03;;;39.40;;
51382;SDS011;37475;43.358;1.248;2022-12-07T08:46:31;67.47;;;39.65;;
51382;SDS011;37475;43.358;1.248;2022-12-07T08:49:12;62.00;;;37.72;;
51382;SDS011;37475;43.358;1.248;2022-12-07T08:51:43;57.67;;;34.17;;
51382;SDS011;37475;43.358;1.248;2022-12-07T08:54:11;52.90;;;31.50;;
51382;SDS011;37475;43.358;1.248;2022-12-07T08:56:40;47.22;;;29.02;;
51382;SDS011;37475;43.358;1.248;2022-12-07T08:59:07;47.65;;;27.50;;
51382;SDS011;37475;43.358;1.248;2022-12-07T09:01:33;45.22;;;26.27;;
51382;SDS011;37475;43.358;1.248;2022-12-07T09:03:59;40.45;;;24.08;;
51382;SDS011;37475;43.358;1.248;2022-12-07T09:06:25;42.03;;;24.70;;
51382;SDS011;37475;43.358;1.248;2022-12-07T09:08:51;42.58;;;23.50;;
51382;SDS011;37475;43.358;1.248;2022-12-07T09:11:23;40.50;;;23.83;;
51382;SDS011;37475;43.358;1.248;2022-12-07T09:13:49;41.25;;;23.65;;
51382;SDS011;37475;43.358;1.248;2022-12-07T09:16:15;49.83;;;25.80;;
51382;SDS011;37475;43.358;1.248;2022-12-07T09:18:40;41.63;;;22.58;;
51382;SDS011;37475;43.358;1.248;2022-12-07T09:21:07;36.67;;;22.05;;
51382;SDS011;37475;43.358;1.248;2022-12-07T09:23:33;39.97;;;21.33;;
51382;SDS011;37475;43.358;1.248;2022-12-07T09:26:00;38.45;;;22.73;;
51382;SDS011;37475;43.358;1.248;2022-12-07T09:28:32;33.70;;;20.77;;
51382;SDS011;37475;43.358;1.248;2022-12-07T09:30:59;29.00;;;20.02;;
51382;SDS011;37475;43.358;1.248;2022-12-07T09:33:25;32.78;;;19.80;;
51382;SDS011;37475;43.358;1.248;2022-12-07T09:35:51;35.65;;;20.05;;
51382;SDS011;37475;43.358;1.248;2022-12-07T09:38:17;33.95;;;18.60;;
51382;SDS011;37475;43.358;1.248;2022-12-07T09:40:44;29.48;;;18.20;;
51382;SDS011;37475;43.358;1.248;2022-12-07T09:45:43;29.75;;;18.15;;
51382;SDS011;37475;43.358;1.248;2022-12-07T09:48:21;28.98;;;17.38;;
51382;SDS011;37475;43.358;1.248;2022-12-07T09:50:56;28.23;;;18.13;;
51382;SDS011;37475;43.358;1.248;2022-12-07T09:53:32;29.35;;;17.55;;
51382;SDS011;37475;43.358;1.248;2022-12-07T09:56:02;30.95;;;18.17;;
51382;SDS011;37475;43.358;1.248;2022-12-07T09:58:29;27.02;;;17.73;;
51382;SDS011;37475;43.358;1.248;2022-12-07T10:00:58;28.05;;;18.48;;
51382;SDS011;37475;43.358;1.248;2022-12-07T10:03:34;27.58;;;17.70;;
51382;SDS011;37475;43.358;1.248;2022-12-07T10:06:03;30.40;;;18.48;;
51382;SDS011;37475;43.358;1.248;2022-12-07T10:08:31;29.05;;;18.27;;
51382;SDS011;37475;43.358;1.248;2022-12-07T10:10:58;29.42;;;17.42;;
51382;SDS011;37475;43.358;1.248;2022-12-07T10:16:03;26.33;;;15.27;;
51382;SDS011;37475;43.358;1.248;2022-12-07T10:32:39;21.08;;;13.90;;
51382;SDS011;37475;43.358;1.248;2022-12-07T10:34:40;19.95;;;12.98;;
51382;SDS011;37475;43.358;1.248;2022-12-07T10:42:27;20.23;;;12.88;;
51382;SDS011;37475;43.358;1.248;2022-12-07T10:53:43;25.60;;;14.75;;
51382;SDS011;37475;43.358;1.248;2022-12-07T11:11:06;27.20;;;17.50;;
51382;SDS011;37475;43.358;1.248;2022-12-07T11:16:57;20.58;;;12.40;;
51382;SDS011;37475;43.358;1.248;2022-12-07T11:22:51;19.98;;;12.00;;
51382;SDS011;37475;43.358;1.248;2022-12-07T11:25:45;19.00;;;12.18;;
51382;SDS011;37475;43.358;1.248;2022-12-07T11:37:51;18.05;;;11.93;;
51382;SDS011;37475;43.358;1.248;2022-12-07T11:40:33;18.02;;;11.60;;
51382;SDS011;37475;43.358;1.248;2022-12-07T11:43:04;17.40;;;12.00;;
51382;SDS011;37475;43.358;1.248;2022-12-07T11:46:00;15.68;;;11.95;;
51382;SDS011;37475;43.358;1.248;2022-12-07T11:48:38;17.45;;;12.30;;
51382;SDS011;37475;43.358;1.248;2022-12-07T11:51:12;17.85;;;12.23;;
51382;SDS011;37475;43.358;1.248;2022-12-07T11:56:13;20.83;;;12.88;;
51382;SDS011;37475;43.358;1.248;2022-12-07T11:58:54;16.27;;;12.13;;
51382;SDS011;37475;43.358;1.248;2022-12-07T12:01:50;18.08;;;12.10;;
51382;SDS011;37475;43.358;1.248;2022-12-07T12:07:15;16.88;;;12.05;;
51382;SDS011;37475;43.358;1.248;2022-12-07T12:09:59;17.08;;;12.55;;
51382;SDS011;37475;43.358;1.248;2022-12-07T12:16:02;18.05;;;12.05;;
51382;SDS011;37475;43.358;1.248;2022-12-07T12:18:46;17.77;;;11.32;;
51382;SDS011;37475;43.358;1.248;2022-12-07T12:21:29;13.77;;;10.15;;
51382;SDS011;37475;43.358;1.248;2022-12-07T12:23:58;14.23;;;10.32;;
51382;SDS011;37475;43.358;1.248;2022-12-07T12:26:31;14.32;;;9.38;;
51382;SDS011;37475;43.358;1.248;2022-12-07T12:29:01;16.85;;;9.25;;
51382;SDS011;37475;43.358;1.248;2022-12-07T12:31:42;12.43;;;8.60;;
51382;SDS011;37475;43.358;1.248;2022-12-07T12:40:42;13.02;;;8.77;;
51382;SDS011;37475;43.358;1.248;2022-12-07T12:43:26;15.30;;;8.70;;
51382;SDS011;37475;43.358;1.248;2022-12-07T12:54:39;12.27;;;8.23;;
51382;SDS011;37475;43.358;1.248;2022-12-07T12:57:34;13.70;;;9.30;;
51382;SDS011;37475;43.358;1.248;2022-12-07T13:00:14;13.63;;;8.45;;
51382;SDS011;37475;43.358;1.248;2022-12-07T13:02:49;14.75;;;8.90;;
51382;SDS011;37475;43.358;1.248;2022-12-07T13:05:28;14.83;;;10.20;;
51382;SDS011;37475;43.358;1.248;2022-12-07T13:08:12;17.98;;;10.10;;
51382;SDS011;37475;43.358;1.248;2022-12-07T13:10:47;14.25;;;9.23;;
51382;SDS011;37475;43.358;1.248;2022-12-07T13:15:45;15.55;;;9.65;;
51382;SDS011;37475;43.358;1.248;2022-12-07T13:18:24;14.70;;;9.73;;
51382;SDS011;37475;43.358;1.248;2022-12-07T13:21:40;13.70;;;10.02;;
51382;SDS011;37475;43.358;1.248;2022-12-07T13:23:52;14.70;;;10.20;;
51382;SDS011;37475;43.358;1.248;2022-12-07T13:26:27;15.65;;;10.27;;
51382;SDS011;37475;43.358;1.248;2022-12-07T13:37:10;13.20;;;8.85;;
51382;SDS011;37475;43.358;1.248;2022-12-07T13:39:56;13.95;;;8.80;;
51382;SDS011;37475;43.358;1.248;2022-12-07T13:42:37;12.35;;;8.90;;
51382;SDS011;37475;43.358;1.248;2022-12-07T13:45:22;11.80;;;8.88;;
51382;SDS011;37475;43.358;1.248;2022-12-07T13:48:20;11.85;;;8.43;;
51382;SDS011;37475;43.358;1.248;2022-12-07T13:51:00;12.30;;;8.82;;
51382;SDS011;37475;43.358;1.248;2022-12-07T13:53:28;15.07;;;9.00;;
51382;SDS011;37475;43.358;1.248;2022-12-07T13:55:59;15.00;;;8.30;;
51382;SDS011;37475;43.358;1.248;2022-12-07T13:58:27;12.68;;;9.10;;
51382;SDS011;37475;43.358;1.248;2022-12-07T14:00:56;9.60;;;6.07;;
51382;SDS011;37475;43.358;1.248;2022-12-07T14:03:27;7.38;;;4.50;;
51382;SDS011;37475;43.358;1.248;2022-12-07T14:06:03;8.57;;;4.13;;
51382;SDS011;37475;43.358;1.248;2022-12-07T14:08:41;7.32;;;4.53;;
51382;SDS011;37475;43.358;1.248;2022-12-07T14:11:08;7.47;;;4.95;;
51382;SDS011;37475;43.358;1.248;2022-12-07T14:13:56;7.97;;;5.13;;
51382;SDS011;37475;43.358;1.248;2022-12-07T14:16:25;7.63;;;5.20;;
51382;SDS011;37475;43.358;1.248;2022-12-07T14:18:59;12.95;;;5.03;;
51382;SDS011;37475;43.358;1.248;2022-12-07T14:21:28;9.35;;;4.93;;
51382;SDS011;37475;43.358;1.248;2022-12-07T14:24:04;8.75;;;5.18;;
51382;SDS011;37475;43.358;1.248;2022-12-07T14:26:45;8.25;;;5.30;;
51382;SDS011;37475;43.358;1.248;2022-12-07T14:34:57;12.52;;;6.15;;
51382;SDS011;37475;43.358;1.248;2022-12-07T14:37:25;10.88;;;6.40;;
51382;SDS011;37475;43.358;1.248;2022-12-07T14:39:52;13.07;;;6.97;;
51382;SDS011;37475;43.358;1.248;2022-12-07T14:42:18;10.98;;;5.97;;
51382;SDS011;37475;43.358;1.248;2022-12-07T14:44:45;12.07;;;6.60;;
51382;SDS011;37475;43.358;1.248;2022-12-07T14:47:11;10.05;;;6.18;;
51382;SDS011;37475;43.358;1.248;2022-12-07T14:49:37;11.02;;;6.13;;
51382;SDS011;37475;43.358;1.248;2022-12-07T14:52:03;14.68;;;5.95;;
51382;SDS011;37475;43.358;1.248;2022-12-07T14:54:31;8.40;;;5.97;;
51382;SDS011;37475;43.358;1.248;2022-12-07T14:56:58;14.52;;;6.05;;
51382;SDS011;37475;43.358;1.248;2022-12-07T14:59:24;8.32;;;5.15;;
51382;SDS011;37475;43.358;1.248;2022-12-07T15:01:49;11.35;;;5.38;;
51382;SDS011;37475;43.358;1.248;2022-12-07T15:04:15;8.90;;;5.35;;
51382;SDS011;37475;43.358;1.248;2022-12-07T15:06:41;10.85;;;6.30;;
51382;SDS011;37475;43.358;1.248;2022-12-07T15:09:11;10.35;;;5.68;;
51382;SDS011;37475;43.358;1.248;2022-12-07T15:11:37;10.55;;;5.68;;
51382;SDS011;37475;43.358;1.248;2022-12-07T15:14:02;9.93;;;5.85;;
51382;SDS011;37475;43.358;1.248;2022-12-07T15:16:37;10.77;;;6.22;;
51382;SDS011;37475;43.358;1.248;2022-12-07T15:19:06;13.18;;;6.40;;
51382;SDS011;37475;43.358;1.248;2022-12-07T15:21:43;11.10;;;7.05;;
51382;SDS011;37475;43.358;1.248;2022-12-07T15:24:10;11.73;;;6.47;;
51382;SDS011;37475;43.358;1.248;2022-12-07T15:26:37;12.93;;;6.93;;
51382;SDS011;37475;43.358;1.248;2022-12-07T15:29:03;10.82;;;7.25;;
51382;SDS011;37475;43.358;1.248;2022-12-07T15:31:30;9.50;;;6.38;;
51382;SDS011;37475;43.358;1.248;2022-12-07T15:33:56;13.07;;;6.97;;
51382;SDS011;37475;43.358;1.248;2022-12-07T15:36:26;11.18;;;6.55;;
51382;SDS011;37475;43.358;1.248;2022-12-07T15:38:54;10.00;;;6.18;;
51382;SDS011;37475;43.358;1.248;2022-12-07T15:41:21;9.90;;;6.03;;
51382;SDS011;37475;43.358;1.248;2022-12-07T15:43:46;10.25;;;6.57;;
51382;SDS011;37475;43.358;1.248;2022-12-07T15:46:38;10.70;;;6.72;;
51382;SDS011;37475;43.358;1.248;2022-12-07T15:49:07;12.82;;;7.30;;
51382;SDS011;37475;43.358;1.248;2022-12-07T15:51:44;12.32;;;7.40;;
51382;SDS011;37475;43.358;1.248;2022-12-07T15:54:18;12.15;;;7.57;;
51382;SDS011;37475;43.358;1.248;2022-12-07T15:56:50;13.07;;;7.43;;
51382;SDS011;37475;43.358;1.248;2022-12-07T15:59:16;16.73;;;7.97;;
51382;SDS011;37475;43.358;1.248;2022-12-07T16:01:42;12.68;;;7.57;;
51382;SDS011;37475;43.358;1.248;2022-12-07T16:04:08;13.48;;;8.10;;
51382;SDS011;37475;43.358;1.248;2022-12-07T16:06:35;16.88;;;8.25;;
51382;SDS011;37475;43.358;1.248;2022-12-07T16:09:01;14.10;;;7.85;;
51382;SDS011;37475;43.358;1.248;2022-12-07T16:11:27;46.97;;;20.50;;
51382;SDS011;37475;43.358;1.248;2022-12-07T16:13:53;37.03;;;17.58;;
51382;SDS011;37475;43.358;1.248;2022-12-07T16:16:19;31.48;;;14.98;;
51382;SDS011;37475;43.358;1.248;2022-12-07T16:18:47;22.33;;;13.18;;
51382;SDS011;37475;43.358;1.248;2022-12-07T16:21:16;38.17;;;19.63;;
51382;SDS011;37475;43.358;1.248;2022-12-07T16:23:42;35.50;;;18.85;;
51382;SDS011;37475;43.358;1.248;2022-12-07T16:26:10;41.17;;;19.92;;
51382;SDS011;37475;43.358;1.248;2022-12-07T16:28:40;36.72;;;18.50;;
51382;SDS011;37475;43.358;1.248;2022-12-07T16:31:10;34.05;;;15.88;;
51382;SDS011;37475;43.358;1.248;2022-12-07T16:33:40;22.08;;;12.48;;
51382;SDS011;37475;43.358;1.248;2022-12-07T16:36:07;16.27;;;9.45;;
51382;SDS011;37475;43.358;1.248;2022-12-07T16:38:35;14.48;;;8.07;;
51382;SDS011;37475;43.358;1.248;2022-12-07T16:41:03;14.27;;;8.18;;
51382;SDS011;37475;43.358;1.248;2022-12-07T16:43:31;16.13;;;8.63;;
51382;SDS011;37475;43.358;1.248;2022-12-07T16:45:57;14.88;;;8.93;;
51382;SDS011;37475;43.358;1.248;2022-12-07T16:48:23;17.60;;;9.50;;
51382;SDS011;37475;43.358;1.248;2022-12-07T16:50:49;16.48;;;10.65;;
51382;SDS011;37475;43.358;1.248;2022-12-07T16:53:15;18.42;;;10.60;;
51382;SDS011;37475;43.358;1.248;2022-12-07T16:55:42;19.90;;;10.52;;
51382;SDS011;37475;43.358;1.248;2022-12-07T16:58:11;19.77;;;10.27;;
51382;SDS011;37475;43.358;1.248;2022-12-07T17:00:38;20.40;;;9.32;;
51382;SDS011;37475;43.358;1.248;2022-12-07T17:03:05;20.63;;;11.45;;
51382;SDS011;37475;43.358;1.248;2022-12-07T17:05:32;25.83;;;13.93;;
51382;SDS011;37475;43.358;1.248;2022-12-07T17:07:58;26.92;;;14.50;;